Time;durP1;ratioP1;P1;durP2;ratioP2;P2;SDS_P1;SDS_P2;PMS_P1;PMS_P2;Temp;Humidity;BMP_temperature;BMP_pressure;BME280_temperature;BME280_humidity;BME280_pressure;Samples;Min_cycle;Max_cycle;Signal;HPM_P1;HPM_P2
2023/02/13 00:00:00;;;;;;;1.4;1.4;;;;;;;7.4;100.0;103500;;;;
2023/02/13 00:01:00;;;;;;;1.4;1.4;;;;;;;7.5;100.0;103490;;;;
2023/02/13 00:02:00;;;;;;;1.4;1.4;;;;;;;7.5;100.0;103490;;;;
2023/02/13 00:03:00;;;;;;;1.6;1.6;;;;;;;7.5;100.0;103490;;;;
2023/02/13 00:04:00;;;;;;;1.6;1.6;;;;;;;7.5;100.0;103490;;;;
2023/02/13 00:05:00;;;;;;;1.6;1.6;;;;;;;7.5;100.0;103490;;;;
2023/02/13 00:06:00;;;;;;;1.6;1.6;;;;;;;7.5;100.0;103490;;;;
2023/02/13 00:07:00;;;;;;;1.6;1.6;;;;;;;7.6;100.0;103490;;;;
2023/02/13 00:08:00;;;;;;;1.6;1.6;;;;;;;7.6;100.0;103490;;;;
2023/02/13 00:09:01;;;;;;;1.6;1.6;;;;;;;7.6;100.0;103490;;;;
2023/02/13 00:10:00;;;;;;;1.6;1.6;;;;;;;7.6;100.0;103490;;;;
2023/02/13 00:11:00;;;;;;;1.6;1.6;;;;;;;7.5;100.0;103480;;;;
2023/02/13 00:12:00;;;;;;;1.6;1.6;;;;;;;7.5;100.0;103480;;;;
2023/02/13 00:13:00;;;;;;;1.6;1.6;;;;;;;7.5;100.0;103480;;;;
2023/02/13 00:14:00;;;;;;;1.6;1.6;;;;;;;7.5;100.0;103480;;;;
2023/02/13 00:15:00;;;;;;;1.6;1.6;;;;;;;7.6;100.0;103490;;;;
2023/02/13 00:16:01;;;;;;;1.6;1.6;;;;;;;7.6;100.0;103490;;;;
2023/02/13 00:17:00;;;;;;;1.6;1.6;;;;;;;7.5;100.0;103480;;;;
2023/02/13 00:18:00;;;;;;;1.6;1.6;;;;;;;7.5;100.0;103480;;;;
2023/02/13 00:19:00;;;;;;;1.6;1.6;;;;;;;7.5;100.0;103490;;;;
2023/02/13 00:20:00;;;;;;;1.6;1.6;;;;;;;7.5;100.0;103490;;;;
2023/02/13 00:21:01;;;;;;;1.6;1.6;;;;;;;7.6;100.0;103490;;;;
2023/02/13 00:22:00;;;;;;;1.6;1.6;;;;;;;7.6;100.0;103490;;;;
2023/02/13 00:23:00;;;;;;;1.6;1.6;;;;;;;7.5;100.0;103480;;;;
2023/02/13 00:24:00;;;;;;;1.6;1.6;;;;;;;7.5;100.0;103480;;;;
2023/02/13 00:25:00;;;;;;;1.6;1.6;;;;;;;7.4;100.0;103480;;;;
2023/02/13 00:26:03;;;;;;;1.6;1.6;;;;;;;7.4;100.0;103480;;;;
2023/02/13 00:27:00;;;;;;;1.6;1.6;;;;;;;7.5;100.0;103480;;;;
2023/02/13 00:28:00;;;;;;;1.6;1.6;;;;;;;7.5;100.0;103480;;;;
2023/02/13 00:29:00;;;;;;;1.6;1.6;;;;;;;7.6;100.0;103480;;;;
2023/02/13 00:30:00;;;;;;;1.6;1.6;;;;;;;7.6;100.0;103480;;;;
2023/02/13 00:31:02;;;;;;;1.6;1.6;;;;;;;7.6;100.0;103480;;;;
2023/02/13 00:32:00;;;;;;;1.6;1.6;;;;;;;7.6;100.0;103480;;;;
2023/02/13 00:33:00;;;;;;;1.6;1.6;;;;;;;7.6;100.0;103480;;;;
2023/02/13 00:34:00;;;;;;;1.6;1.6;;;;;;;7.6;100.0;103480;;;;
2023/02/13 00:35:00;;;;;;;1.6;1.6;;;;;;;7.5;100.0;103480;;;;
2023/02/13 00:36:02;;;;;;;1.6;1.6;;;;;;;7.5;100.0;103480;;;;
2023/02/13 00:37:00;;;;;;;1.6;1.6;;;;;;;7.5;100.0;103480;;;;
2023/02/13 00:38:00;;;;;;;1.6;1.6;;;;;;;7.5;100.0;103480;;;;
2023/02/13 00:39:00;;;;;;;1.6;1.6;;;;;;;7.4;100.0;103480;;;;
2023/02/13 00:40:00;;;;;;;1.6;1.6;;;;;;;7.4;100.0;103480;;;;
2023/02/13 00:41:00;;;;;;;1.6;1.6;;;;;;;7.5;100.0;103480;;;;
2023/02/13 00:42:00;;;;;;;1.6;1.6;;;;;;;7.5;100.0;103480;;;;
2023/02/13 00:43:00;;;;;;;2.4;2.2;;;;;;;7.5;100.0;103470;;;;
2023/02/13 00:44:00;;;;;;;2.4;2.2;;;;;;;7.5;100.0;103470;;;;
2023/02/13 00:45:00;;;;;;;2.4;2.2;;;;;;;7.6;100.0;103470;;;;
2023/02/13 00:46:00;;;;;;;2.4;2.2;;;;;;;7.6;100.0;103470;;;;
2023/02/13 00:47:00;;;;;;;2.4;2.2;;;;;;;7.6;100.0;103470;;;;
2023/02/13 00:48:00;;;;;;;2.4;2.2;;;;;;;7.6;100.0;103470;;;;
2023/02/13 00:49:00;;;;;;;2.4;2.2;;;;;;;7.7;100.0;103470;;;;
2023/02/13 00:50:00;;;;;;;2.4;2.2;;;;;;;7.7;100.0;103470;;;;
2023/02/13 00:51:00;;;;;;;2.4;2.2;;;;;;;7.5;100.0;103470;;;;
2023/02/13 00:52:00;;;;;;;2.4;2.2;;;;;;;7.5;100.0;103470;;;;
2023/02/13 00:53:00;;;;;;;2.4;2.2;;;;;;;7.5;100.0;103470;;;;
2023/02/13 00:54:00;;;;;;;2.4;2.2;;;;;;;7.5;100.0;103470;;;;
2023/02/13 00:55:00;;;;;;;2.4;2.2;;;;;;;7.6;100.0;103480;;;;
2023/02/13 00:56:00;;;;;;;2.4;2.2;;;;;;;7.6;100.0;103480;;;;
2023/02/13 00:57:00;;;;;;;2.4;2.2;;;;;;;7.6;100.0;103480;;;;
2023/02/13 00:58:00;;;;;;;2.4;2.2;;;;;;;7.6;100.0;103480;;;;
2023/02/13 00:59:00;;;;;;;2.4;2.2;;;;;;;7.6;100.0;103470;;;;
2023/02/13 01:00:00;;;;;;;2.4;2.2;;;;;;;7.6;100.0;103470;;;;
2023/02/13 01:01:00;;;;;;;2.4;2.2;;;;;;;7.5;100.0;103470;;;;
2023/02/13 01:02:00;;;;;;;2.4;2.2;;;;;;;7.5;100.0;103470;;;;
2023/02/13 01:03:00;;;;;;;1.7;1.7;;;;;;;7.5;100.0;103470;;;;
2023/02/13 01:04:00;;;;;;;1.7;1.7;;;;;;;7.5;100.0;103470;;;;
2023/02/13 01:05:00;;;;;;;1.7;1.7;;;;;;;7.6;100.0;103470;;;;
2023/02/13 01:06:00;;;;;;;1.7;1.7;;;;;;;7.6;100.0;103470;;;;
2023/02/13 01:07:00;;;;;;;1.7;1.7;;;;;;;7.7;100.0;103470;;;;
2023/02/13 01:08:00;;;;;;;1.7;1.7;;;;;;;7.7;100.0;103470;;;;
2023/02/13 01:09:02;;;;;;;1.7;1.7;;;;;;;7.5;100.0;103480;;;;
2023/02/13 01:10:00;;;;;;;1.7;1.7;;;;;;;7.5;100.0;103480;;;;
2023/02/13 01:11:00;;;;;;;1.7;1.7;;;;;;;7.5;100.0;103480;;;;
2023/02/13 01:12:00;;;;;;;1.7;1.7;;;;;;;7.5;100.0;103480;;;;
2023/02/13 01:13:00;;;;;;;1.7;1.7;;;;;;;7.6;100.0;103480;;;;
2023/02/13 01:14:00;;;;;;;1.7;1.7;;;;;;;7.6;100.0;103480;;;;
2023/02/13 01:15:00;;;;;;;1.7;1.7;;;;;;;7.5;100.0;103480;;;;
2023/02/13 01:16:00;;;;;;;1.7;1.7;;;;;;;7.5;100.0;103480;;;;
2023/02/13 01:17:00;;;;;;;1.7;1.7;;;;;;;7.6;100.0;103480;;;;
2023/02/13 01:18:00;;;;;;;1.7;1.7;;;;;;;7.6;100.0;103480;;;;
2023/02/13 01:19:00;;;;;;;1.7;1.7;;;;;;;7.5;100.0;103480;;;;
2023/02/13 01:20:00;;;;;;;1.7;1.7;;;;;;;7.5;100.0;103480;;;;
2023/02/13 01:21:01;;;;;;;1.7;1.7;;;;;;;7.4;100.0;103480;;;;
2023/02/13 01:22:00;;;;;;;1.7;1.7;;;;;;;7.4;100.0;103480;;;;
2023/02/13 01:23:00;;;;;;;1.7;1.7;;;;;;;7.5;100.0;103480;;;;
2023/02/13 01:24:02;;;;;;;1.7;1.7;;;;;;;7.5;100.0;103480;;;;
2023/02/13 01:25:00;;;;;;;1.7;1.7;;;;;;;7.5;100.0;103480;;;;
2023/02/13 01:26:02;;;;;;;1.7;1.7;;;;;;;7.5;100.0;103480;;;;
2023/02/13 01:27:01;;;;;;;1.7;1.7;;;;;;;7.4;100.0;103480;;;;
2023/02/13 01:28:00;;;;;;;1.7;1.7;;;;;;;7.4;100.0;103480;;;;
2023/02/13 01:29:00;;;;;;;1.7;1.7;;;;;;;7.4;100.0;103480;;;;
2023/02/13 01:30:00;;;;;;;1.7;1.7;;;;;;;7.4;100.0;103480;;;;
2023/02/13 01:31:01;;;;;;;1.7;1.7;;;;;;;7.4;100.0;103480;;;;
2023/02/13 01:32:02;;;;;;;1.7;1.7;;;;;;;7.4;100.0;103480;;;;
2023/02/13 01:33:00;;;;;;;1.7;1.7;;;;;;;7.4;100.0;103480;;;;
2023/02/13 01:34:00;;;;;;;1.7;1.7;;;;;;;7.4;100.0;103480;;;;
2023/02/13 01:35:00;;;;;;;1.7;1.7;;;;;;;7.6;100.0;103470;;;;
2023/02/13 01:36:04;;;;;;;1.7;1.7;;;;;;;7.6;100.0;103470;;;;
2023/02/13 01:37:00;;;;;;;1.7;1.7;;;;;;;7.5;100.0;103470;;;;
2023/02/13 01:38:00;;;;;;;1.7;1.7;;;;;;;7.5;100.0;103470;;;;
2023/02/13 01:39:00;;;;;;;1.7;1.7;;;;;;;7.5;100.0;103470;;;;
2023/02/13 01:40:00;;;;;;;1.7;1.7;;;;;;;7.5;100.0;103470;;;;
2023/02/13 01:41:00;;;;;;;1.7;1.7;;;;;;;7.5;100.0;103470;;;;
2023/02/13 01:42:00;;;;;;;1.7;1.7;;;;;;;7.5;100.0;103470;;;;
2023/02/13 01:43:00;;;;;;;1.8;1.8;;;;;;;7.5;100.0;103480;;;;
2023/02/13 01:44:01;;;;;;;1.8;1.8;;;;;;;7.5;100.0;103480;;;;
2023/02/13 01:45:03;;;;;;;1.8;1.8;;;;;;;7.5;100.0;103480;;;;
2023/02/13 01:46:00;;;;;;;1.8;1.8;;;;;;;7.5;100.0;103480;;;;
2023/02/13 01:47:00;;;;;;;1.8;1.8;;;;;;;7.5;100.0;103480;;;;
2023/02/13 01:48:06;;;;;;;1.8;1.8;;;;;;;7.5;100.0;103480;;;;
2023/02/13 01:49:04;;;;;;;1.8;1.8;;;;;;;7.5;100.0;103470;;;;
2023/02/13 01:50:07;;;;;;;1.8;1.8;;;;;;;7.5;100.0;103470;;;;
2023/02/13 01:51:03;;;;;;;1.8;1.8;;;;;;;7.4;100.0;103470;;;;
2023/02/13 01:52:00;;;;;;;1.8;1.8;;;;;;;7.4;100.0;103470;;;;
2023/02/13 01:53:10;;;;;;;1.8;1.8;;;;;;;7.4;100.0;103470;;;;
2023/02/13 01:54:06;;;;;;;1.8;1.8;;;;;;;7.4;100.0;103470;;;;
2023/02/13 01:55:00;;;;;;;1.8;1.8;;;;;;;7.4;100.0;103460;;;;
2023/02/13 01:56:02;;;;;;;1.8;1.8;;;;;;;7.4;100.0;103460;;;;
2023/02/13 01:57:03;;;;;;;1.8;1.8;;;;;;;7.5;100.0;103460;;;;
2023/02/13 01:58:03;;;;;;;1.8;1.8;;;;;;;7.5;100.0;103460;;;;
2023/02/13 01:59:02;;;;;;;1.8;1.8;;;;;;;7.4;100.0;103460;;;;
2023/02/13 02:00:03;;;;;;;1.8;1.8;;;;;;;7.4;100.0;103460;;;;
2023/02/13 02:01:01;;;;;;;1.8;1.8;;;;;;;7.5;100.0;103460;;;;
2023/02/13 02:02:01;;;;;;;1.9;1.9;;;;;;;7.5;100.0;103460;;;;
2023/02/13 02:03:03;;;;;;;1.9;1.9;;;;;;;7.5;100.0;103460;;;;
2023/02/13 02:04:03;;;;;;;1.9;1.9;;;;;;;7.5;100.0;103460;;;;
2023/02/13 02:05:01;;;;;;;1.9;1.9;;;;;;;7.6;100.0;103460;;;;
2023/02/13 02:06:01;;;;;;;1.9;1.9;;;;;;;7.6;100.0;103460;;;;
2023/02/13 02:07:02;;;;;;;1.9;1.9;;;;;;;7.5;100.0;103460;;;;
2023/02/13 02:08:01;;;;;;;1.9;1.9;;;;;;;7.5;100.0;103460;;;;
2023/02/13 02:09:04;;;;;;;1.9;1.9;;;;;;;7.4;100.0;103460;;;;
2023/02/13 02:10:03;;;;;;;1.9;1.9;;;;;;;7.4;100.0;103460;;;;
2023/02/13 02:11:04;;;;;;;1.9;1.9;;;;;;;7.4;100.0;103460;;;;
2023/02/13 02:12:04;;;;;;;1.9;1.9;;;;;;;7.4;100.0;103460;;;;
2023/02/13 02:13:10;;;;;;;1.9;1.9;;;;;;;7.4;100.0;103450;;;;
2023/02/13 02:14:01;;;;;;;1.9;1.9;;;;;;;7.4;100.0;103450;;;;
2023/02/13 02:15:02;;;;;;;1.9;1.9;;;;;;;7.5;100.0;103450;;;;
2023/02/13 02:16:01;;;;;;;1.9;1.9;;;;;;;7.5;100.0;103450;;;;
2023/02/13 02:17:00;;;;;;;1.9;1.9;;;;;;;7.4;100.0;103450;;;;
2023/02/13 02:18:00;;;;;;;1.9;1.9;;;;;;;7.4;100.0;103450;;;;
2023/02/13 02:19:03;;;;;;;1.9;1.9;;;;;;;7.5;100.0;103450;;;;
2023/02/13 02:20:04;;;;;;;1.9;1.9;;;;;;;7.5;100.0;103450;;;;
2023/02/13 02:21:08;;;;;;;1.9;1.9;;;;;;;7.3;100.0;103450;;;;
2023/02/13 02:22:03;;;;;;;2.0;2.0;;;;;;;7.3;100.0;103450;;;;
2023/02/13 02:23:01;;;;;;;2.0;2.0;;;;;;;7.5;100.0;103450;;;;
2023/02/13 02:24:10;;;;;;;2.0;2.0;;;;;;;7.5;100.0;103450;;;;
2023/02/13 02:25:10;;;;;;;2.0;2.0;;;;;;;7.6;100.0;103450;;;;
2023/02/13 02:26:07;;;;;;;2.0;2.0;;;;;;;7.6;100.0;103450;;;;
2023/02/13 02:27:00;;;;;;;2.0;2.0;;;;;;;7.5;100.0;103450;;;;
2023/02/13 02:28:00;;;;;;;2.0;2.0;;;;;;;7.5;100.0;103450;;;;
2023/02/13 02:29:10;;;;;;;2.0;2.0;;;;;;;7.4;100.0;103450;;;;
2023/02/13 02:30:10;;;;;;;2.0;2.0;;;;;;;7.4;100.0;103450;;;;
2023/02/13 02:31:11;;;;;;;2.0;2.0;;;;;;;7.3;100.0;103450;;;;
2023/02/13 02:32:00;;;;;;;2.0;2.0;;;;;;;7.3;100.0;103450;;;;
2023/02/13 02:33:00;;;;;;;2.0;2.0;;;;;;;7.4;100.0;103450;;;;
2023/02/13 02:34:01;;;;;;;2.0;2.0;;;;;;;7.4;100.0;103450;;;;
2023/02/13 02:35:09;;;;;;;2.0;2.0;;;;;;;7.4;100.0;103450;;;;
2023/02/13 02:36:10;;;;;;;2.0;2.0;;;;;;;7.4;100.0;103450;;;;
2023/02/13 02:37:04;;;;;;;2.0;2.0;;;;;;;7.4;100.0;103450;;;;
2023/02/13 02:38:03;;;;;;;2.0;2.0;;;;;;;7.4;100.0;103450;;;;
2023/02/13 02:39:10;;;;;;;2.0;2.0;;;;;;;7.5;100.0;103450;;;;
2023/02/13 02:40:01;;;;;;;2.0;2.0;;;;;;;7.5;100.0;103450;;;;
2023/02/13 02:41:01;;;;;;;2.0;2.0;;;;;;;7.5;100.0;103440;;;;
2023/02/13 02:42:07;;;;;;;1.4;1.4;;;;;;;7.5;100.0;103440;;;;
2023/02/13 02:43:10;;;;;;;1.4;1.4;;;;;;;7.3;100.0;103450;;;;
2023/02/13 02:44:09;;;;;;;1.4;1.4;;;;;;;7.3;100.0;103450;;;;
2023/02/13 02:45:06;;;;;;;1.4;1.4;;;;;;;7.4;100.0;103440;;;;
2023/02/13 02:46:10;;;;;;;1.4;1.4;;;;;;;7.4;100.0;103440;;;;
2023/02/13 02:50:09;;;;;;;1.4;1.4;;;;;;;7.3;100.0;103450;;;;
2023/02/13 02:51:00;;;;;;;1.4;1.4;;;;;;;7.3;100.0;103450;;;;
2023/02/13 02:52:05;;;;;;;1.4;1.4;;;;;;;7.3;100.0;103450;;;;
2023/02/13 02:53:10;;;;;;;1.4;1.4;;;;;;;7.3;100.0;103450;;;;
2023/02/13 02:55:05;;;;;;;1.4;1.4;;;;;;;7.3;100.0;103450;;;;
2023/02/13 02:55:10;;;;;;;1.4;1.4;;;;;;;7.3;100.0;103440;;;;
2023/02/13 02:56:06;;;;;;;1.4;1.4;;;;;;;7.3;100.0;103440;;;;
2023/02/13 02:57:05;;;;;;;1.4;1.4;;;;;;;7.3;100.0;103440;;;;
2023/02/13 03:06:09;;;;;;;1.7;1.7;;;;;;;7.4;100.0;103440;;;;
2023/02/13 03:07:03;;;;;;;1.7;1.7;;;;;;;7.3;100.0;103440;;;;
2023/02/13 03:08:01;;;;;;;1.7;1.7;;;;;;;7.3;100.0;103440;;;;
2023/02/13 03:14:02;;;;;;;1.7;1.7;;;;;;;7.1;100.0;103440;;;;
2023/02/13 03:15:00;;;;;;;1.7;1.7;;;;;;;7.1;100.0;103440;;;;
2023/02/13 03:23:12;;;;;;;1.3;1.3;;;;;;;7.0;100.0;103440;;;;
2023/02/13 03:24:06;;;;;;;1.3;1.3;;;;;;;7.0;100.0;103440;;;;
2023/02/13 03:25:10;;;;;;;1.3;1.3;;;;;;;6.9;100.0;103450;;;;
2023/02/13 03:26:10;;;;;;;1.3;1.3;;;;;;;6.9;100.0;103450;;;;
2023/02/13 03:27:10;;;;;;;1.3;1.3;;;;;;;6.9;100.0;103440;;;;
2023/02/13 03:30:08;;;;;;;1.3;1.3;;;;;;;6.8;100.0;103440;;;;
2023/02/13 03:31:03;;;;;;;1.3;1.3;;;;;;;6.8;100.0;103440;;;;
2023/02/13 03:32:06;;;;;;;1.3;1.3;;;;;;;6.8;100.0;103440;;;;
2023/02/13 03:33:01;;;;;;;1.3;1.3;;;;;;;6.7;100.0;103440;;;;
2023/02/13 03:34:03;;;;;;;1.3;1.3;;;;;;;6.7;100.0;103440;;;;
2023/02/13 03:38:04;;;;;;;1.3;1.3;;;;;;;6.6;100.0;103450;;;;
2023/02/13 03:39:10;;;;;;;1.3;1.3;;;;;;;6.5;100.0;103450;;;;
2023/02/13 03:40:08;;;;;;;1.3;1.3;;;;;;;6.5;100.0;103450;;;;
2023/02/13 03:42:03;;;;;;;1.6;1.6;;;;;;;6.5;100.0;103450;;;;
2023/02/13 03:43:10;;;;;;;1.6;1.6;;;;;;;6.5;100.0;103450;;;;
2023/02/13 03:44:10;;;;;;;1.6;1.6;;;;;;;6.5;100.0;103450;;;;
2023/02/13 03:46:01;;;;;;;1.6;1.6;;;;;;;6.4;100.0;103450;;;;
2023/02/13 03:47:02;;;;;;;1.6;1.6;;;;;;;6.3;100.0;103450;;;;
2023/02/13 03:48:08;;;;;;;1.6;1.6;;;;;;;6.3;100.0;103450;;;;
2023/02/13 03:50:04;;;;;;;1.6;1.6;;;;;;;6.3;100.0;103450;;;;
2023/02/13 03:51:02;;;;;;;1.6;1.6;;;;;;;6.3;100.0;103450;;;;
2023/02/13 03:52:09;;;;;;;1.6;1.6;;;;;;;6.3;100.0;103450;;;;
2023/02/13 03:53:02;;;;;;;1.6;1.6;;;;;;;6.2;100.0;103450;;;;
2023/02/13 03:54:02;;;;;;;1.6;1.6;;;;;;;6.2;100.0;103450;;;;
2023/02/13 04:00:01;;;;;;;1.6;1.6;;;;;;;6.1;100.0;103450;;;;
2023/02/13 04:01:02;;;;;;;1.6;1.6;;;;;;;6.0;100.0;103450;;;;
2023/02/13 04:02:07;;;;;;;2.2;2.2;;;;;;;6.0;100.0;103450;;;;
2023/02/13 04:03:07;;;;;;;2.2;2.2;;;;;;;6.0;100.0;103450;;;;
2023/02/13 04:04:07;;;;;;;2.2;2.2;;;;;;;6.0;100.0;103450;;;;
2023/02/13 04:05:07;;;;;;;2.2;2.2;;;;;;;6.0;100.0;103440;;;;
2023/02/13 04:06:03;;;;;;;2.2;2.2;;;;;;;6.0;100.0;103440;;;;
2023/02/13 04:07:03;;;;;;;2.2;2.2;;;;;;;5.9;100.0;103440;;;;
2023/02/13 04:08:00;;;;;;;2.2;2.2;;;;;;;5.9;100.0;103440;;;;
2023/02/13 04:09:00;;;;;;;2.2;2.2;;;;;;;5.8;100.0;103450;;;;
2023/02/13 04:10:04;;;;;;;2.2;2.2;;;;;;;5.8;100.0;103450;;;;
2023/02/13 04:11:07;;;;;;;2.2;2.2;;;;;;;5.8;100.0;103450;;;;
2023/02/13 04:12:07;;;;;;;2.2;2.2;;;;;;;5.8;100.0;103450;;;;
2023/02/13 04:13:10;;;;;;;2.2;2.2;;;;;;;5.8;100.0;103450;;;;
2023/02/13 04:14:06;;;;;;;2.2;2.2;;;;;;;5.8;100.0;103450;;;;
2023/02/13 04:15:06;;;;;;;2.2;2.2;;;;;;;5.7;100.0;103450;;;;
2023/02/13 04:16:05;;;;;;;2.2;2.2;;;;;;;5.7;100.0;103450;;;;
2023/02/13 04:17:03;;;;;;;2.2;2.2;;;;;;;5.7;100.0;103450;;;;
2023/02/13 04:18:11;;;;;;;2.2;2.2;;;;;;;5.7;100.0;103450;;;;
2023/02/13 04:19:00;;;;;;;2.2;2.2;;;;;;;5.7;100.0;103450;;;;
2023/02/13 04:20:00;;;;;;;2.2;2.2;;;;;;;5.7;100.0;103450;;;;
2023/02/13 04:21:02;;;;;;;2.2;2.2;;;;;;;5.7;100.0;103450;;;;
2023/02/13 04:22:01;;;;;;;1.9;1.9;;;;;;;5.7;100.0;103450;;;;
2023/02/13 04:23:05;;;;;;;1.9;1.9;;;;;;;5.7;100.0;103450;;;;
2023/02/13 04:24:00;;;;;;;1.9;1.9;;;;;;;5.7;100.0;103450;;;;
2023/02/13 04:25:00;;;;;;;1.9;1.9;;;;;;;5.6;100.0;103450;;;;
2023/02/13 04:26:02;;;;;;;1.9;1.9;;;;;;;5.6;100.0;103450;;;;
2023/02/13 04:27:00;;;;;;;1.9;1.9;;;;;;;5.6;100.0;103450;;;;
2023/02/13 04:28:00;;;;;;;1.9;1.9;;;;;;;5.6;100.0;103450;;;;
2023/02/13 04:29:00;;;;;;;1.9;1.9;;;;;;;5.5;100.0;103450;;;;
2023/02/13 04:30:00;;;;;;;1.9;1.9;;;;;;;5.5;100.0;103450;;;;
2023/02/13 04:31:01;;;;;;;1.9;1.9;;;;;;;5.5;100.0;103450;;;;
2023/02/13 04:32:00;;;;;;;1.9;1.9;;;;;;;5.5;100.0;103450;;;;
2023/02/13 04:33:00;;;;;;;1.9;1.9;;;;;;;5.4;100.0;103450;;;;
2023/02/13 04:34:00;;;;;;;1.9;1.9;;;;;;;5.4;100.0;103450;;;;
2023/02/13 04:35:00;;;;;;;1.9;1.9;;;;;;;5.4;100.0;103450;;;;
2023/02/13 04:36:00;;;;;;;1.9;1.9;;;;;;;5.4;100.0;103450;;;;
2023/02/13 04:37:00;;;;;;;1.9;1.9;;;;;;;5.4;100.0;103450;;;;
2023/02/13 04:38:00;;;;;;;1.9;1.9;;;;;;;5.4;100.0;103450;;;;
2023/02/13 04:39:00;;;;;;;1.9;1.9;;;;;;;5.4;100.0;103450;;;;
2023/02/13 04:40:00;;;;;;;1.9;1.9;;;;;;;5.4;100.0;103450;;;;
2023/02/13 04:41:00;;;;;;;1.9;1.9;;;;;;;5.3;100.0;103450;;;;
2023/02/13 04:42:00;;;;;;;2.0;2.0;;;;;;;5.3;100.0;103450;;;;
2023/02/13 04:43:00;;;;;;;2.0;2.0;;;;;;;5.3;100.0;103450;;;;
2023/02/13 04:44:00;;;;;;;2.0;2.0;;;;;;;5.3;100.0;103450;;;;
2023/02/13 04:45:00;;;;;;;2.0;2.0;;;;;;;5.3;100.0;103440;;;;
2023/02/13 04:46:00;;;;;;;2.0;2.0;;;;;;;5.3;100.0;103440;;;;
2023/02/13 04:47:00;;;;;;;2.0;2.0;;;;;;;5.3;100.0;103440;;;;
2023/02/13 04:48:00;;;;;;;2.0;2.0;;;;;;;5.3;100.0;103440;;;;
2023/02/13 04:49:00;;;;;;;2.0;2.0;;;;;;;5.2;100.0;103440;;;;
2023/02/13 04:50:00;;;;;;;2.0;2.0;;;;;;;5.2;100.0;103440;;;;
2023/02/13 04:51:00;;;;;;;2.0;2.0;;;;;;;5.3;100.0;103440;;;;
2023/02/13 04:52:00;;;;;;;2.0;2.0;;;;;;;5.3;100.0;103440;;;;
2023/02/13 04:53:00;;;;;;;2.0;2.0;;;;;;;5.2;100.0;103440;;;;
2023/02/13 04:54:00;;;;;;;2.0;2.0;;;;;;;5.2;100.0;103440;;;;
2023/02/13 04:55:00;;;;;;;2.0;2.0;;;;;;;5.2;100.0;103440;;;;
2023/02/13 04:56:00;;;;;;;2.0;2.0;;;;;;;5.2;100.0;103440;;;;
2023/02/13 04:57:00;;;;;;;2.0;2.0;;;;;;;5.3;100.0;103430;;;;
2023/02/13 04:58:00;;;;;;;2.0;2.0;;;;;;;5.3;100.0;103430;;;;
2023/02/13 04:59:00;;;;;;;2.0;2.0;;;;;;;5.2;100.0;103430;;;;
2023/02/13 05:00:00;;;;;;;2.0;2.0;;;;;;;5.2;100.0;103430;;;;
2023/02/13 05:01:00;;;;;;;2.0;2.0;;;;;;;5.1;100.0;103430;;;;
2023/02/13 05:02:00;;;;;;;2.1;2.1;;;;;;;5.1;100.0;103430;;;;
2023/02/13 05:03:04;;;;;;;2.1;2.1;;;;;;;5.2;100.0;103430;;;;
2023/02/13 05:04:00;;;;;;;2.1;2.1;;;;;;;5.2;100.0;103430;;;;
2023/02/13 05:05:00;;;;;;;2.1;2.1;;;;;;;5.1;100.0;103430;;;;
2023/02/13 05:06:00;;;;;;;2.1;2.1;;;;;;;5.1;100.0;103430;;;;
2023/02/13 05:07:00;;;;;;;2.1;2.1;;;;;;;5.1;100.0;103430;;;;
2023/02/13 05:08:00;;;;;;;2.1;2.1;;;;;;;5.1;100.0;103430;;;;
2023/02/13 05:09:00;;;;;;;2.1;2.1;;;;;;;5.1;100.0;103430;;;;
2023/02/13 05:10:00;;;;;;;2.1;2.1;;;;;;;5.1;100.0;103430;;;;
2023/02/13 05:11:00;;;;;;;2.1;2.1;;;;;;;5.0;100.0;103420;;;;
2023/02/13 05:12:00;;;;;;;2.1;2.1;;;;;;;5.0;100.0;103420;;;;
2023/02/13 05:13:00;;;;;;;2.1;2.1;;;;;;;5.0;100.0;103430;;;;
2023/02/13 05:14:00;;;;;;;2.1;2.1;;;;;;;5.0;100.0;103430;;;;
2023/02/13 05:15:00;;;;;;;2.1;2.1;;;;;;;4.9;100.0;103430;;;;
2023/02/13 05:16:00;;;;;;;2.1;2.1;;;;;;;4.9;100.0;103430;;;;
2023/02/13 05:17:00;;;;;;;2.1;2.1;;;;;;;4.9;100.0;103430;;;;
2023/02/13 05:18:00;;;;;;;2.1;2.1;;;;;;;4.9;100.0;103430;;;;
2023/02/13 05:19:00;;;;;;;2.1;2.1;;;;;;;4.9;100.0;103430;;;;
2023/02/13 05:20:00;;;;;;;2.1;2.1;;;;;;;4.9;100.0;103430;;;;
2023/02/13 05:24:00;;;;;;;2.3;2.3;;;;;;;4.9;100.0;103430;;;;
2023/02/13 05:25:00;;;;;;;2.3;2.3;;;;;;;4.8;100.0;103430;;;;
2023/02/13 05:26:00;;;;;;;2.3;2.3;;;;;;;4.8;100.0;103430;;;;
2023/02/13 05:27:00;;;;;;;2.3;2.3;;;;;;;4.8;100.0;103430;;;;
2023/02/13 05:28:00;;;;;;;2.3;2.3;;;;;;;4.8;100.0;103430;;;;
2023/02/13 05:30:00;;;;;;;2.3;2.3;;;;;;;4.8;100.0;103420;;;;
2023/02/13 05:31:01;;;;;;;2.3;2.3;;;;;;;4.8;100.0;103420;;;;
2023/02/13 05:32:00;;;;;;;2.3;2.3;;;;;;;4.8;100.0;103420;;;;
2023/02/13 05:33:00;;;;;;;2.3;2.3;;;;;;;4.8;100.0;103420;;;;
2023/02/13 05:34:00;;;;;;;2.3;2.3;;;;;;;4.8;100.0;103420;;;;
2023/02/13 05:35:04;;;;;;;2.3;2.3;;;;;;;4.7;100.0;103420;;;;
2023/02/13 05:36:00;;;;;;;2.3;2.3;;;;;;;4.7;100.0;103420;;;;
2023/02/13 05:37:00;;;;;;;2.3;2.3;;;;;;;4.7;100.0;103420;;;;
2023/02/13 05:38:00;;;;;;;2.3;2.3;;;;;;;4.7;100.0;103420;;;;
2023/02/13 05:39:00;;;;;;;2.3;2.3;;;;;;;4.7;100.0;103420;;;;
2023/02/13 05:40:00;;;;;;;2.3;2.3;;;;;;;4.7;100.0;103420;;;;
2023/02/13 05:41:00;;;;;;;2.3;2.3;;;;;;;4.6;100.0;103430;;;;
2023/02/13 05:42:03;;;;;;;1.9;1.9;;;;;;;4.6;100.0;103430;;;;
2023/02/13 05:43:00;;;;;;;1.9;1.9;;;;;;;4.6;100.0;103420;;;;
2023/02/13 05:44:00;;;;;;;1.9;1.9;;;;;;;4.6;100.0;103420;;;;
2023/02/13 05:45:00;;;;;;;1.9;1.9;;;;;;;4.6;100.0;103420;;;;
2023/02/13 05:46:01;;;;;;;1.9;1.9;;;;;;;4.6;100.0;103420;;;;
2023/02/13 05:47:00;;;;;;;1.9;1.9;;;;;;;4.5;100.0;103420;;;;
2023/02/13 05:48:00;;;;;;;1.9;1.9;;;;;;;4.5;100.0;103420;;;;
2023/02/13 05:49:00;;;;;;;1.9;1.9;;;;;;;4.5;100.0;103420;;;;
2023/02/13 05:50:00;;;;;;;1.9;1.9;;;;;;;4.5;100.0;103420;;;;
2023/02/13 05:51:00;;;;;;;1.9;1.9;;;;;;;4.4;100.0;103420;;;;
2023/02/13 05:52:00;;;;;;;1.9;1.9;;;;;;;4.4;100.0;103420;;;;
2023/02/13 05:53:00;;;;;;;1.9;1.9;;;;;;;4.4;100.0;103420;;;;
2023/02/13 05:54:00;;;;;;;1.9;1.9;;;;;;;4.4;100.0;103420;;;;
2023/02/13 05:55:00;;;;;;;1.9;1.9;;;;;;;4.4;100.0;103420;;;;
2023/02/13 05:56:01;;;;;;;1.9;1.9;;;;;;;4.4;100.0;103420;;;;
2023/02/13 05:57:00;;;;;;;1.9;1.9;;;;;;;4.4;100.0;103420;;;;
2023/02/13 05:58:00;;;;;;;1.9;1.9;;;;;;;4.4;100.0;103420;;;;
2023/02/13 05:59:00;;;;;;;1.9;1.9;;;;;;;4.4;100.0;103420;;;;
2023/02/13 06:00:00;;;;;;;1.9;1.9;;;;;;;4.4;100.0;103420;;;;
2023/02/13 06:01:00;;;;;;;1.8;1.8;;;;;;;4.3;100.0;103420;;;;
2023/02/13 06:02:00;;;;;;;1.8;1.8;;;;;;;4.3;100.0;103420;;;;
2023/02/13 06:03:00;;;;;;;1.8;1.8;;;;;;;4.3;100.0;103430;;;;
2023/02/13 06:04:03;;;;;;;1.8;1.8;;;;;;;4.3;100.0;103430;;;;
2023/02/13 06:05:00;;;;;;;1.8;1.8;;;;;;;4.3;100.0;103420;;;;
2023/02/13 06:06:00;;;;;;;1.8;1.8;;;;;;;4.3;100.0;103420;;;;
2023/02/13 06:07:00;;;;;;;1.8;1.8;;;;;;;4.3;100.0;103430;;;;
2023/02/13 06:08:00;;;;;;;1.8;1.8;;;;;;;4.3;100.0;103430;;;;
2023/02/13 06:09:00;;;;;;;1.8;1.8;;;;;;;4.3;100.0;103420;;;;
2023/02/13 06:10:00;;;;;;;1.8;1.8;;;;;;;4.3;100.0;103420;;;;
2023/02/13 06:11:00;;;;;;;1.8;1.8;;;;;;;4.2;100.0;103420;;;;
2023/02/13 06:12:00;;;;;;;1.8;1.8;;;;;;;4.2;100.0;103420;;;;
2023/02/13 06:13:00;;;;;;;1.8;1.8;;;;;;;4.2;100.0;103420;;;;
2023/02/13 06:14:00;;;;;;;1.8;1.8;;;;;;;4.2;100.0;103420;;;;
2023/02/13 06:15:00;;;;;;;1.8;1.8;;;;;;;4.2;100.0;103420;;;;
2023/02/13 06:16:00;;;;;;;1.8;1.8;;;;;;;4.2;100.0;103420;;;;
2023/02/13 06:17:00;;;;;;;1.8;1.8;;;;;;;4.2;100.0;103420;;;;
2023/02/13 06:18:00;;;;;;;1.8;1.8;;;;;;;4.2;100.0;103420;;;;
2023/02/13 06:19:00;;;;;;;1.8;1.8;;;;;;;4.1;100.0;103420;;;;
2023/02/13 06:20:00;;;;;;;1.8;1.8;;;;;;;4.1;100.0;103420;;;;
2023/02/13 06:21:00;;;;;;;2.2;2.2;;;;;;;4.1;100.0;103420;;;;
2023/02/13 06:22:00;;;;;;;2.2;2.2;;;;;;;4.1;100.0;103420;;;;
2023/02/13 06:23:00;;;;;;;2.2;2.2;;;;;;;4.0;100.0;103420;;;;
2023/02/13 06:24:00;;;;;;;2.2;2.2;;;;;;;4.0;100.0;103420;;;;
2023/02/13 06:25:00;;;;;;;2.2;2.2;;;;;;;4.0;100.0;103420;;;;
2023/02/13 06:26:01;;;;;;;2.2;2.2;;;;;;;4.0;100.0;103420;;;;
2023/02/13 06:27:00;;;;;;;2.2;2.2;;;;;;;4.1;100.0;103420;;;;
2023/02/13 06:28:00;;;;;;;2.2;2.2;;;;;;;4.1;100.0;103420;;;;
2023/02/13 06:29:00;;;;;;;2.2;2.2;;;;;;;4.1;100.0;103420;;;;
2023/02/13 06:30:00;;;;;;;2.2;2.2;;;;;;;4.1;100.0;103420;;;;
2023/02/13 06:31:01;;;;;;;2.2;2.2;;;;;;;4.0;100.0;103420;;;;
2023/02/13 06:32:00;;;;;;;2.2;2.2;;;;;;;4.0;100.0;103420;;;;
2023/02/13 06:33:00;;;;;;;2.2;2.2;;;;;;;4.0;100.0;103420;;;;
2023/02/13 06:34:00;;;;;;;2.2;2.2;;;;;;;4.0;100.0;103420;;;;
2023/02/13 06:35:00;;;;;;;2.2;2.2;;;;;;;4.0;100.0;103430;;;;
2023/02/13 06:36:00;;;;;;;2.2;2.2;;;;;;;4.0;100.0;103430;;;;
2023/02/13 06:37:00;;;;;;;2.2;2.2;;;;;;;4.0;100.0;103430;;;;
2023/02/13 06:38:00;;;;;;;2.2;2.2;;;;;;;4.0;100.0;103430;;;;
2023/02/13 06:39:00;;;;;;;2.2;2.2;;;;;;;3.9;100.0;103420;;;;
2023/02/13 06:40:00;;;;;;;2.2;2.2;;;;;;;3.9;100.0;103420;;;;
2023/02/13 06:41:01;;;;;;;2.1;2.1;;;;;;;4.0;100.0;103430;;;;
2023/02/13 06:42:00;;;;;;;2.1;2.1;;;;;;;4.0;100.0;103430;;;;
2023/02/13 06:43:00;;;;;;;2.1;2.1;;;;;;;3.9;100.0;103430;;;;
2023/02/13 06:44:00;;;;;;;2.1;2.1;;;;;;;3.9;100.0;103430;;;;
2023/02/13 06:45:00;;;;;;;2.1;2.1;;;;;;;3.9;100.0;103430;;;;
2023/02/13 06:46:03;;;;;;;2.1;2.1;;;;;;;3.9;100.0;103430;;;;
2023/02/13 06:47:00;;;;;;;2.1;2.1;;;;;;;3.8;100.0;103430;;;;
2023/02/13 06:48:00;;;;;;;2.1;2.1;;;;;;;3.8;100.0;103430;;;;
2023/02/13 06:49:00;;;;;;;2.1;2.1;;;;;;;3.8;100.0;103430;;;;
2023/02/13 06:50:00;;;;;;;2.1;2.1;;;;;;;3.8;100.0;103430;;;;
2023/02/13 06:51:00;;;;;;;2.1;2.1;;;;;;;3.9;100.0;103430;;;;
2023/02/13 06:52:00;;;;;;;2.1;2.1;;;;;;;3.9;100.0;103430;;;;
2023/02/13 06:53:00;;;;;;;2.1;2.1;;;;;;;3.8;100.0;103430;;;;
2023/02/13 06:54:01;;;;;;;2.1;2.1;;;;;;;3.8;100.0;103430;;;;
2023/02/13 06:55:00;;;;;;;2.1;2.1;;;;;;;3.8;100.0;103430;;;;
2023/02/13 06:56:02;;;;;;;2.1;2.1;;;;;;;3.8;100.0;103430;;;;
2023/02/13 06:57:00;;;;;;;2.1;2.1;;;;;;;3.8;100.0;103420;;;;
2023/02/13 06:58:00;;;;;;;2.1;2.1;;;;;;;3.8;100.0;103420;;;;
2023/02/13 06:59:00;;;;;;;2.1;2.1;;;;;;;3.8;100.0;103430;;;;
2023/02/13 07:00:04;;;;;;;2.1;2.1;;;;;;;3.8;100.0;103430;;;;
2023/02/13 07:01:00;;;;;;;2.5;2.5;;;;;;;3.8;100.0;103420;;;;
2023/02/13 07:02:00;;;;;;;2.5;2.5;;;;;;;3.8;100.0;103420;;;;
2023/02/13 07:03:02;;;;;;;2.5;2.5;;;;;;;3.8;100.0;103430;;;;
2023/02/13 07:04:00;;;;;;;2.5;2.5;;;;;;;3.8;100.0;103430;;;;
2023/02/13 07:05:01;;;;;;;2.5;2.5;;;;;;;3.8;100.0;103430;;;;
2023/02/13 07:06:00;;;;;;;2.5;2.5;;;;;;;3.8;100.0;103430;;;;
2023/02/13 07:07:00;;;;;;;2.5;2.5;;;;;;;3.7;100.0;103430;;;;
2023/02/13 07:08:00;;;;;;;2.5;2.5;;;;;;;3.7;100.0;103430;;;;
2023/02/13 07:09:02;;;;;;;2.5;2.5;;;;;;;3.7;100.0;103430;;;;